Kezdőlap
METAR-TAF:

METAR-TAF

Repülőterek :

légibázis

Solenzara, Franciaország

földrajzi szélesség: 41-55N, földrajzi hosszúság: 009-24E, magasság: 8 m

Jelenlegi meteorológiai megfigyelések

A jelentés 43 perccel ezelõtt készült, 19:30 UTC
Nyugati szél 4 kt
Hőmérséklet 11°C
Páratartalom 87%
Légköri nyomás 1032 hPa
Látótávolság 10 km, vagy több
felhőtlen 1500 m magasságban, és nincs gomolyfelhõ

METAR: LFKS 221930Z AUTO 27004KT CAVOK 11/09 Q1032

Idő: 21:13 (20:13 UTC)

Előrejelzés

A jelentés 36 órával és 13 perccel ezelõtt készült, 08:00 UTC
Az előrejelzés 21-én 09 óra UTC és 22-én 09 óra UTC között érvényes
Nyugat-északnyugati szél 8 kt
Látótávolság 10 km, vagy több
felhőtlen 1500 m magasságban, és nincs gomolyfelhõ

TAF: LFKS 210800Z 2109/2209 30008KT CAVOK

Meteorológiai megfigyelések és előrejelzések több, mint 4000 repülőtéren (METAR és TAF jelentéseket).

A térképen piros és sárga pontok jelzik az elérhető meteorológiai állomásokat.

Mozgassa az egeret a pont fölött, hogy megjelenjen az állomás neve.

Azután kattintson az időjárási megfigyelések és előrejelzések megtekintéséhez.

A térkép megváltoztatása: kattintson a fekete keresztel jelölt zöld gombra ráközelítéshez, a vonallal jelölt zöld gombra távolításhoz, vagy a zöld nyilakra a szomszédos térképek eléréséhez.


METAR-TAF: